createdAt,value
2022-11-15T00:03:24.847Z,0.00
2022-11-15T00:08:22.735Z,0.00
2022-11-15T00:13:22.519Z,0.00
2022-11-15T00:18:22.408Z,0.00
2022-11-15T00:23:23.442Z,0.00
2022-11-15T00:28:22.263Z,0.00
2022-11-15T00:33:22.235Z,0.00
2022-11-15T00:38:22.209Z,0.00
2022-11-15T00:43:22.303Z,0.00
2022-11-15T00:48:22.232Z,0.00
2022-11-15T00:53:22.134Z,0.00
2022-11-15T00:58:22.038Z,0.00
2022-11-15T01:03:22.064Z,0.00
2022-11-15T01:08:22.117Z,0.00
2022-11-15T01:13:21.832Z,0.00
2022-11-15T01:18:21.798Z,0.00
2022-11-15T01:23:21.746Z,0.00
2022-11-15T01:28:21.767Z,0.00
2022-11-15T01:33:21.759Z,0.00
2022-11-15T01:38:21.598Z,0.00
2022-11-15T01:43:22.554Z,0.00
2022-11-15T01:48:21.396Z,0.00
2022-11-15T01:53:21.339Z,0.00
2022-11-15T01:58:21.269Z,0.00
2022-11-15T02:03:21.251Z,0.00
2022-11-15T02:08:21.372Z,0.00
2022-11-15T02:13:22.289Z,0.00
2022-11-15T02:18:21.163Z,0.00
2022-11-15T02:23:21.192Z,0.00
2022-11-15T02:28:21.101Z,0.00
2022-11-15T02:33:20.879Z,0.00
2022-11-15T02:38:20.892Z,0.00
2022-11-15T02:43:20.865Z,0.00
2022-11-15T02:48:20.767Z,0.00
2022-11-15T02:53:20.745Z,0.00
2022-11-15T02:58:20.693Z,0.00
2022-11-15T03:03:20.716Z,0.00
2022-11-15T03:08:20.583Z,0.00
2022-11-15T03:13:20.495Z,0.00
2022-11-15T03:18:20.448Z,0.00
2022-11-15T03:23:20.348Z,0.00
2022-11-15T03:28:20.309Z,0.00
2022-11-15T03:33:20.394Z,0.00
2022-11-15T03:38:20.370Z,0.00
2022-11-15T03:43:29.315Z,0.00
2022-11-15T03:48:20.065Z,0.00
2022-11-15T03:53:20.032Z,0.00
2022-11-15T03:58:20.073Z,0.00
2022-11-15T04:03:19.874Z,0.00
2022-11-15T04:08:19.853Z,0.00
2022-11-15T04:13:19.762Z,0.00
2022-11-15T04:18:19.855Z,0.00
2022-11-15T04:23:19.772Z,0.00
2022-11-15T04:28:19.722Z,0.00
2022-11-15T04:33:19.686Z,0.00
2022-11-15T04:38:20.503Z,0.00
2022-11-15T04:43:20.576Z,0.00
2022-11-15T04:48:19.410Z,0.00
2022-11-15T04:53:19.483Z,0.00
2022-11-15T04:58:19.343Z,0.00
2022-11-15T05:03:19.298Z,0.00
2022-11-15T05:08:19.233Z,0.00
2022-11-15T05:13:19.130Z,0.00
2022-11-15T05:18:23.280Z,0.00
2022-11-15T05:23:24.542Z,0.00
2022-11-15T05:28:18.928Z,0.00
2022-11-15T05:33:18.909Z,0.00
2022-11-15T05:38:18.930Z,0.00
2022-11-15T05:43:18.775Z,0.00
2022-11-15T05:48:18.755Z,0.00
2022-11-15T05:53:18.868Z,0.00
2022-11-15T05:58:18.670Z,0.00
2022-11-15T06:03:18.698Z,0.00
2022-11-15T06:08:18.654Z,0.00
2022-11-15T06:13:18.482Z,0.00
2022-11-15T06:18:18.389Z,4.00
2022-11-15T06:23:18.452Z,4.00
2022-11-15T06:28:18.313Z,8.00
2022-11-15T06:33:18.334Z,24.00
2022-11-15T06:38:18.181Z,84.00
2022-11-15T06:43:18.216Z,156.00
2022-11-15T06:48:18.244Z,148.00
2022-11-15T06:53:18.117Z,220.00
2022-11-15T06:58:18.212Z,356.00
2022-11-15T07:03:18.129Z,848.00
2022-11-15T07:08:18.942Z,1000.00
2022-11-15T07:13:17.840Z,1424.00
2022-11-15T07:18:17.897Z,1628.00
2022-11-15T07:23:17.898Z,1848.00
2022-11-15T07:28:17.635Z,1852.00
2022-11-15T07:33:17.660Z,2388.00
2022-11-15T07:38:17.621Z,3076.00
2022-11-15T07:43:17.497Z,3240.00
2022-11-15T07:48:17.464Z,3656.00
2022-11-15T07:53:18.376Z,3428.00
2022-11-15T07:58:17.464Z,4952.00
2022-11-15T08:03:17.404Z,4624.00
2022-11-15T08:08:17.266Z,4724.00
2022-11-15T08:13:18.250Z,5068.00
2022-11-15T08:18:17.117Z,5288.00
2022-11-15T08:23:17.034Z,6088.00
2022-11-15T08:28:16.980Z,6628.00
2022-11-15T08:33:16.995Z,6804.00
2022-11-15T08:38:16.918Z,6600.00
2022-11-15T08:43:16.902Z,7852.00
2022-11-15T08:48:16.783Z,7536.00
2022-11-15T08:53:16.689Z,7056.00
2022-11-15T08:58:16.628Z,7708.00
2022-11-15T09:03:16.585Z,9720.00
2022-11-15T09:08:40.715Z,10172.00
2022-11-15T09:13:17.504Z,11232.00
2022-11-15T09:18:16.461Z,10512.00
2022-11-15T09:23:16.403Z,10416.00
2022-11-15T09:28:31.541Z,9912.00
2022-11-15T09:33:16.317Z,10472.00
2022-11-15T09:38:16.185Z,11232.00
2022-11-15T09:43:16.244Z,13040.00
2022-11-15T09:48:17.096Z,13172.00
2022-11-15T09:53:16.106Z,11924.00
2022-11-15T09:58:16.053Z,12320.00
2022-11-15T10:03:15.896Z,11240.00
2022-11-15T10:08:15.835Z,10884.00
2022-11-15T10:13:15.778Z,10976.00
2022-11-15T10:18:15.817Z,10608.00
2022-11-15T10:23:15.692Z,10592.00
2022-11-15T10:28:15.625Z,11040.00
2022-11-15T10:33:15.663Z,11392.00
2022-11-15T10:38:15.496Z,11488.00
2022-11-15T10:43:15.515Z,11028.00
2022-11-15T10:48:15.431Z,11236.00
2022-11-15T10:53:15.365Z,11368.00
2022-11-15T11:00:39.475Z,11032.00
2022-11-15T11:05:42.172Z,10308.00
2022-11-15T11:11:00.046Z,10036.00
2022-11-15T11:15:40.469Z,9240.00
2022-11-15T11:20:39.340Z,10660.00
2022-11-15T11:25:39.266Z,10592.00
2022-11-15T11:30:48.189Z,10320.00
2022-11-15T11:35:39.128Z,10380.00
2022-11-15T11:40:39.100Z,10680.00
2022-11-15T11:45:41.251Z,8612.00
2022-11-15T11:50:38.941Z,9312.00
2022-11-15T11:55:39.012Z,7400.00
2022-11-15T12:00:38.875Z,8884.00
2022-11-15T12:05:38.788Z,6332.00
2022-11-15T12:10:38.893Z,6308.00
2022-11-15T12:15:38.664Z,6112.00
2022-11-15T12:20:38.636Z,5936.00
2022-11-15T12:25:38.559Z,5600.00
2022-11-15T12:30:38.477Z,5644.00
2022-11-15T12:35:38.612Z,5884.00
2022-11-15T12:40:39.534Z,5416.00
2022-11-15T12:45:38.450Z,5076.00
2022-11-15T12:50:38.352Z,5208.00
2022-11-15T12:55:38.283Z,5376.00
2022-11-15T13:00:38.243Z,5640.00
2022-11-15T13:05:38.130Z,5860.00
2022-11-15T13:10:38.107Z,5680.00
2022-11-15T13:15:42.500Z,5336.00
2022-11-15T13:20:38.980Z,5004.00
2022-11-15T13:25:38.149Z,4808.00
2022-11-15T13:30:39.060Z,4624.00
2022-11-15T13:35:37.881Z,4584.00
2022-11-15T13:40:37.693Z,5568.00
2022-11-15T13:45:37.700Z,6452.00
2022-11-15T13:50:46.599Z,6796.00
2022-11-15T13:55:37.555Z,6012.00
2022-11-15T14:00:37.617Z,6376.00
2022-11-15T14:05:37.438Z,5980.00
2022-11-15T14:10:37.419Z,6228.00
2022-11-15T14:15:37.412Z,5528.00
2022-11-15T14:20:37.412Z,5256.00
2022-11-15T14:25:37.315Z,4640.00
2022-11-15T14:30:37.240Z,3640.00
2022-11-15T14:35:37.179Z,2648.00
2022-11-15T14:40:37.086Z,3364.00
2022-11-15T14:45:36.982Z,3208.00
2022-11-15T14:50:37.017Z,2508.00
2022-11-15T14:55:36.889Z,2336.00
2022-11-15T15:00:37.024Z,2088.00
2022-11-15T15:05:36.780Z,1684.00
2022-11-15T15:10:41.496Z,1408.00
2022-11-15T15:15:37.684Z,1160.00
2022-11-15T15:20:36.588Z,908.00
2022-11-15T15:25:36.574Z,632.00
2022-11-15T15:30:36.516Z,484.00
2022-11-15T15:35:39.835Z,372.00
2022-11-15T15:40:36.540Z,256.00
2022-11-15T15:45:36.376Z,176.00
2022-11-15T15:50:36.279Z,116.00
2022-11-15T15:55:36.208Z,64.00
2022-11-15T16:00:36.217Z,28.00
2022-11-15T16:05:36.247Z,12.00
2022-11-15T16:10:36.115Z,4.00
2022-11-15T16:15:36.092Z,4.00
2022-11-15T16:20:36.038Z,0.00
2022-11-15T16:25:35.883Z,0.00
2022-11-15T16:30:35.859Z,0.00
2022-11-15T16:35:35.758Z,0.00
2022-11-15T16:40:35.779Z,0.00
2022-11-15T16:45:35.686Z,0.00
2022-11-15T16:50:35.629Z,0.00
2022-11-15T16:55:35.611Z,0.00
2022-11-15T17:00:35.548Z,0.00
2022-11-15T17:05:35.481Z,0.00
2022-11-15T17:10:35.396Z,0.00
2022-11-15T17:15:35.321Z,0.00
2022-11-15T17:20:35.379Z,0.00
2022-11-15T17:25:35.346Z,0.00
2022-11-15T17:30:35.202Z,0.00
2022-11-15T17:35:35.159Z,0.00
2022-11-15T17:40:35.075Z,0.00
2022-11-15T17:45:34.990Z,0.00
2022-11-15T17:50:37.021Z,0.00
2022-11-15T17:55:35.001Z,0.00
2022-11-15T18:00:35.959Z,0.00
2022-11-15T18:05:34.908Z,0.00
2022-11-15T18:10:34.927Z,0.00
2022-11-15T18:15:34.723Z,0.00
2022-11-15T18:20:34.719Z,0.00
2022-11-15T18:25:43.512Z,0.00
2022-11-15T18:30:34.544Z,0.00
2022-11-15T18:35:34.482Z,0.00
2022-11-15T18:40:34.494Z,0.00
2022-11-15T18:45:34.377Z,0.00
2022-11-15T18:50:34.290Z,0.00
2022-11-15T18:55:34.249Z,0.00
2022-11-15T19:00:34.206Z,0.00
2022-11-15T19:05:34.193Z,0.00
2022-11-15T19:10:34.101Z,0.00
2022-11-15T19:15:34.035Z,0.00
2022-11-15T19:20:34.144Z,0.00
2022-11-15T19:25:33.936Z,0.00
2022-11-15T19:30:33.955Z,0.00
2022-11-15T19:35:33.854Z,0.00
2022-11-15T19:40:33.858Z,0.00
2022-11-15T19:45:33.782Z,0.00
2022-11-15T19:50:33.762Z,0.00
2022-11-15T19:55:34.775Z,0.00
2022-11-15T20:00:33.512Z,0.00
2022-11-15T20:05:33.622Z,0.00
2022-11-15T20:10:33.591Z,0.00
2022-11-15T20:15:33.545Z,0.00
2022-11-15T20:20:33.371Z,0.00
2022-11-15T20:25:33.381Z,0.00
2022-11-15T20:30:33.438Z,0.00
2022-11-15T20:35:33.323Z,0.00
2022-11-15T20:40:33.177Z,0.00
2022-11-15T20:45:33.144Z,0.00
2022-11-15T20:50:42.710Z,0.00
2022-11-15T20:55:33.999Z,0.00
2022-11-15T21:00:32.930Z,0.00
2022-11-15T21:05:32.846Z,0.00
2022-11-15T21:10:32.921Z,0.00
2022-11-15T21:15:32.785Z,0.00
2022-11-15T21:20:32.779Z,0.00
2022-11-15T21:25:32.762Z,0.00
2022-11-15T21:30:32.633Z,0.00
2022-11-15T21:35:32.567Z,0.00
2022-11-15T21:40:32.487Z,0.00
2022-11-15T21:45:32.346Z,0.00
2022-11-15T21:50:32.322Z,0.00
2022-11-15T21:55:32.336Z,0.00
2022-11-15T22:00:32.316Z,0.00
2022-11-15T22:05:32.151Z,0.00
2022-11-15T22:10:32.196Z,0.00
2022-11-15T22:15:31.994Z,0.00
2022-11-15T22:20:47.249Z,0.00
2022-11-15T22:25:32.890Z,0.00
2022-11-15T22:30:31.849Z,0.00
2022-11-15T22:35:31.800Z,0.00
2022-11-15T22:40:31.780Z,0.00
2022-11-15T22:45:31.793Z,0.00
2022-11-15T22:50:31.711Z,0.00
2022-11-15T22:55:31.693Z,0.00
2022-11-15T23:00:31.565Z,0.00
2022-11-15T23:05:31.451Z,0.00
2022-11-15T23:10:31.395Z,0.00
2022-11-15T23:15:33.387Z,0.00
2022-11-15T23:20:43.016Z,0.00
2022-11-15T23:25:32.335Z,0.00
2022-11-15T23:30:31.209Z,0.00
2022-11-15T23:35:31.155Z,0.00
2022-11-15T23:40:31.058Z,0.00
2022-11-15T23:45:31.016Z,0.00
2022-11-15T23:50:30.973Z,0.00
2022-11-15T23:55:30.901Z,0.00
